Time;durP1;ratioP1;P1;durP2;ratioP2;P2;SDS_P1;SDS_P2;PMS_P1;PMS_P2;Temp;Humidity;BMP_temperature;BMP_pressure;BME280_temperature;BME280_humidity;BME280_pressure;Samples;Min_cycle;Max_cycle;Signal;HPM_P1;HPM_P2
2023/05/19 00:02:00;;;;;;;;;;;14.70;81.20;;;-151.14;100.00;62537.16;5071734;28;19920;-83
2023/05/19 00:04:28;;;;;;;;;;;14.70;81.00;;;-151.14;100.00;62537.16;5072006;28;19923;-82
2023/05/19 00:06:57;;;;;;;;;;;14.70;80.90;;;-151.14;100.00;62537.16;5055404;28;19927;-82
2023/05/19 00:09:27;;;;;;;;;;;14.70;81.10;;;-151.14;100.00;62537.16;5054554;28;19927;-83
2023/05/19 00:11:55;;;;;;;;;;;14.70;80.90;;;-151.14;100.00;62537.16;5054535;28;19921;-83
2023/05/19 00:14:23;;;;;;;;;;;14.70;80.80;;;-151.14;100.00;62537.16;5055156;28;19921;-83
2023/05/19 00:16:54;;;;;;;;;;;14.70;80.80;;;-151.14;100.00;62537.16;5055189;28;19920;-83
2023/05/19 00:19:23;;;;;;;;;;;14.70;80.80;;;-151.14;100.00;62537.16;5037581;28;19924;-83
2023/05/19 00:21:51;;;;;;;;;;;14.70;80.90;;;-151.14;100.00;62537.16;5054818;28;19920;-83
2023/05/19 00:24:19;;;;;;;;;;;14.70;80.80;;;-151.14;100.00;62537.16;5072643;28;19927;-82
2023/05/19 00:26:48;;;;;;;;;;;14.70;80.80;;;-151.14;100.00;62537.16;5072711;28;19927;-83
2023/05/19 00:29:17;;;;;;;;;;;14.70;80.90;;;-151.14;100.00;62537.16;5054196;28;19927;-83
2023/05/19 00:31:45;;;;;;;;;;;14.70;80.80;;;-151.14;100.00;62537.16;5038040;28;19920;-83
2023/05/19 00:34:14;;;;;;;;;;;14.70;80.80;;;-151.14;100.00;62537.16;5054640;28;19920;-83
2023/05/19 00:36:42;;;;;;;;;;;14.70;80.80;;;-151.14;100.00;62537.16;5054583;28;19927;-82
2023/05/19 00:39:10;;;;;;;;;;;14.70;80.70;;;-151.14;100.00;62537.16;5037452;28;19921;-83
2023/05/19 00:41:38;;;;;;;;;;;14.70;80.80;;;-151.14;100.00;62537.16;5072289;28;19927;-83
2023/05/19 00:44:08;;;;;;;;;;;14.70;80.80;;;-151.14;100.00;62537.16;5054644;28;19921;-83
2023/05/19 00:46:36;;;;;;;;;;;14.70;80.70;;;-151.14;100.00;62537.16;5037918;28;19921;-82
2023/05/19 00:49:04;;;;;;;;;;;14.70;80.70;;;-151.14;100.00;62537.16;5037204;28;19921;-82
2023/05/19 00:51:32;;;;;;;;;;;14.70;80.70;;;-151.14;100.00;62537.16;5054518;28;19920;-82
2023/05/19 00:54:00;;;;;;;;;;;14.70;80.80;;;-151.14;100.00;62537.16;5072193;28;19927;-83
2023/05/19 00:56:28;;;;;;;;;;;14.70;80.60;;;-151.14;100.00;62537.16;5037683;28;19920;-82
2023/05/19 00:58:57;;;;;;;;;;;14.70;80.80;;;-151.14;100.00;62537.16;5037085;28;19927;-83
2023/05/19 01:01:26;;;;;;;;;;;14.70;80.70;;;-151.14;100.00;62537.16;5037699;28;20120;-82
2023/05/19 01:03:57;;;;;;;;;;;14.70;80.70;;;-151.14;100.00;62537.16;5071143;28;19920;-82
2023/05/19 01:06:26;;;;;;;;;;;14.70;80.70;;;-151.14;100.00;62537.16;5037586;28;19920;-83
2023/05/19 01:08:54;;;;;;;;;;;14.70;80.70;;;-151.14;100.00;62537.16;5053687;28;19921;-83
2023/05/19 01:11:22;;;;;;;;;;;14.70;80.70;;;-151.14;100.00;62537.16;5070800;28;19926;-82
2023/05/19 01:13:50;;;;;;;;;;;14.70;80.60;;;-151.14;100.00;62537.16;5037484;28;20111;-82
2023/05/19 01:16:22;;;;;;;;;;;14.70;80.60;;;-151.14;100.00;62537.16;5053823;28;19920;-83
2023/05/19 01:18:57;;;;;;;;;;;14.70;80.60;;;-151.14;100.00;62537.16;5053311;28;19920;-82
2023/05/19 01:21:55;;;;;;;;;;;14.70;80.60;;;-151.14;100.00;62537.16;5053511;28;19927;-82
2023/05/19 01:24:32;;;;;;;;;;;14.70;80.70;;;-151.14;100.00;62537.16;5041790;28;20208;-83
2023/05/19 01:27:15;;;;;;;;;;;14.60;80.50;;;-151.14;100.00;62537.16;5054078;28;20124;-82
2023/05/19 01:29:50;;;;;;;;;;;14.60;80.50;;;-151.14;100.00;62537.16;5053241;28;19920;-83
2023/05/19 01:32:19;;;;;;;;;;;14.60;80.60;;;-151.14;100.00;62537.16;5053834;28;19927;-83
2023/05/19 01:34:49;;;;;;;;;;;14.70;80.80;;;-151.14;100.00;62537.16;5071555;28;19942;-83
2023/05/19 01:37:17;;;;;;;;;;;14.70;80.80;;;-151.14;100.00;62537.16;5071467;28;19921;-82
2023/05/19 01:39:46;;;;;;;;;;;14.60;80.70;;;-151.14;100.00;62537.16;5036393;28;19920;-83
2023/05/19 01:42:15;;;;;;;;;;;14.60;80.80;;;-151.14;100.00;62537.16;5068786;28;19926;-83
2023/05/19 01:44:43;;;;;;;;;;;14.60;80.90;;;-151.14;100.00;62537.16;5056990;28;19926;-83
2023/05/19 01:47:11;;;;;;;;;;;14.60;81.10;;;-151.14;100.00;62537.16;5073668;28;19920;-82
2023/05/19 01:49:40;;;;;;;;;;;14.60;81.00;;;-151.14;100.00;62537.16;5072842;28;19926;-82
2023/05/19 01:52:09;;;;;;;;;;;14.60;81.20;;;-151.14;100.00;62537.16;5056674;28;19926;-83
2023/05/19 01:54:37;;;;;;;;;;;14.70;81.30;;;-151.14;100.00;62537.16;5056861;28;19920;-83
2023/05/19 01:57:10;;;;;;;;;;;14.70;81.50;;;-151.14;100.00;62537.16;5073338;28;20100;-83
2023/05/19 01:59:43;;;;;;;;;;;14.70;81.40;;;-151.14;100.00;62537.16;5072879;28;19924;-82
2023/05/19 02:02:15;;;;;;;;;;;14.70;81.60;;;-151.14;100.00;62537.16;5056800;28;19924;-82
2023/05/19 02:04:48;;;;;;;;;;;14.70;81.90;;;-151.14;100.00;62537.16;5056726;28;19927;-82
2023/05/19 02:07:21;;;;;;;;;;;14.70;81.80;;;-151.14;100.00;62537.16;5073335;28;19920;-83
2023/05/19 02:09:52;;;;;;;;;;;14.70;81.90;;;-151.14;100.00;62537.16;5056088;28;19926;-82
2023/05/19 02:12:24;;;;;;;;;;;14.70;81.80;;;-151.14;100.00;62537.16;5073432;28;19938;-83
2023/05/19 02:14:55;;;;;;;;;;;14.70;81.60;;;-151.14;100.00;62537.16;5073442;28;20111;-83
2023/05/19 02:17:23;;;;;;;;;;;14.70;81.70;;;-151.14;100.00;62537.16;5056807;28;19935;-82
2023/05/19 02:19:52;;;;;;;;;;;14.70;81.80;;;-151.14;100.00;62537.16;5055932;28;20116;-83
2023/05/19 02:22:20;;;;;;;;;;;14.70;81.70;;;-151.14;100.00;62537.16;5073158;28;19928;-83
2023/05/19 02:24:50;;;;;;;;;;;14.70;81.90;;;-151.14;100.00;62537.16;5056473;28;19920;-82
2023/05/19 02:27:18;;;;;;;;;;;14.70;82.00;;;-151.14;100.00;62537.16;5090335;28;19921;-82
2023/05/19 02:29:46;;;;;;;;;;;14.70;82.00;;;-151.14;100.00;62537.16;5071508;28;19920;-83
2023/05/19 02:32:14;;;;;;;;;;;14.70;82.00;;;-151.14;100.00;62537.16;5073130;28;19920;-82
2023/05/19 02:34:44;;;;;;;;;;;14.70;82.10;;;-151.14;100.00;62537.16;5059115;28;19921;-82
2023/05/19 02:37:14;;;;;;;;;;;14.70;82.10;;;-151.14;100.00;62537.16;5094433;28;19942;-82
2023/05/19 02:39:42;;;;;;;;;;;14.70;82.00;;;-151.14;100.00;62537.16;5076008;28;19926;-83
2023/05/19 02:42:10;;;;;;;;;;;14.70;82.30;;;-151.14;100.00;62537.16;5059629;28;19927;-82
2023/05/19 02:44:38;;;;;;;;;;;14.70;82.20;;;-151.14;100.00;62537.16;5059752;28;20208;-83
2023/05/19 02:47:07;;;;;;;;;;;14.70;82.10;;;-151.14;100.00;62537.16;5076403;28;19921;-83
2023/05/19 02:49:35;;;;;;;;;;;14.70;82.00;;;-151.14;100.00;62537.16;5059025;28;19927;-83
2023/05/19 02:52:04;;;;;;;;;;;14.70;82.10;;;-151.14;100.00;62537.16;5076424;28;19926;-82
2023/05/19 02:54:33;;;;;;;;;;;14.70;82.10;;;-151.14;100.00;62537.16;5076445;28;20115;-82
2023/05/19 02:57:01;;;;;;;;;;;14.70;82.00;;;-151.14;100.00;62537.16;5059535;28;19927;-82
2023/05/19 02:59:30;;;;;;;;;;;14.70;82.20;;;-151.14;100.00;62537.16;5058693;28;19931;-82
2023/05/19 03:01:59;;;;;;;;;;;14.70;82.20;;;-151.14;100.00;62537.16;5059338;28;19920;-83
2023/05/19 03:04:28;;;;;;;;;;;14.70;82.10;;;-151.14;100.00;62537.16;5076576;28;19934;-83
2023/05/19 03:06:56;;;;;;;;;;;14.70;82.00;;;-151.14;100.00;62537.16;5059232;28;19920;-82
2023/05/19 03:09:24;;;;;;;;;;;14.70;81.80;;;-151.14;100.00;62537.16;5058679;28;19920;-83
2023/05/19 03:11:53;;;;;;;;;;;14.70;81.80;;;-151.14;100.00;62537.16;5059280;28;19920;-82
2023/05/19 03:14:23;;;;;;;;;;;14.70;81.80;;;-151.14;100.00;62537.16;5076198;28;19926;-83
2023/05/19 03:16:51;;;;;;;;;;;14.70;81.60;;;-151.14;100.00;62537.16;5059162;28;19920;-82
2023/05/19 03:19:19;;;;;;;;;;;14.70;81.50;;;-151.14;100.00;62537.16;5075396;28;19920;-83
2023/05/19 03:21:48;;;;;;;;;;;14.70;81.40;;;-151.14;100.00;62537.16;5059096;28;19920;-82
2023/05/19 03:24:16;;;;;;;;;;;14.70;81.30;;;-151.14;100.00;62537.16;5059142;28;20003;-82
2023/05/19 03:26:44;;;;;;;;;;;14.70;81.20;;;-151.14;100.00;62537.16;5059016;28;19927;-82
2023/05/19 03:29:14;;;;;;;;;;;14.70;81.40;;;-151.14;100.00;62537.16;5075150;28;19920;-82
2023/05/19 03:31:42;;;;;;;;;;;14.70;81.50;;;-151.14;100.00;62537.16;5075928;28;20195;-83
2023/05/19 03:34:10;;;;;;;;;;;14.70;81.70;;;-151.14;100.00;62537.16;5093664;28;19927;-82
2023/05/19 03:36:38;;;;;;;;;;;14.70;82.00;;;-151.14;100.00;62537.16;5058959;28;19927;-83
2023/05/19 03:39:09;;;;;;;;;;;14.70;82.10;;;-151.14;100.00;62537.16;5075048;28;19927;-82
2023/05/19 03:41:38;;;;;;;;;;;14.70;82.10;;;-151.14;100.00;62537.16;5059022;28;19920;-82
2023/05/19 03:44:06;;;;;;;;;;;14.70;82.10;;;-151.14;100.00;62537.16;5058632;28;19927;-82
2023/05/19 03:46:36;;;;;;;;;;;14.70;82.10;;;-151.14;100.00;62537.16;5058127;28;19921;-82
2023/05/19 03:49:10;;;;;;;;;;;14.70;82.30;;;-151.14;100.00;62537.16;5074872;28;19926;-82
2023/05/19 03:51:58;;;;;;;;;;;14.70;82.50;;;-151.14;100.00;62537.16;5061369;28;19920;-83
2023/05/19 03:54:33;;;;;;;;;;;14.70;82.70;;;-151.14;100.00;62537.16;5058841;28;19927;-82
2023/05/19 03:57:02;;;;;;;;;;;14.80;82.40;;;-151.14;100.00;62537.16;5058646;28;20318;-83
2023/05/19 03:59:31;;;;;;;;;;;14.70;82.50;;;-151.14;100.00;62537.16;5074584;28;19920;-82
2023/05/19 04:02:01;;;;;;;;;;;14.80;82.80;;;-151.14;100.00;62537.16;5058484;28;19926;-83
2023/05/19 04:04:29;;;;;;;;;;;14.80;82.70;;;-151.14;100.00;62537.16;5058597;28;19920;-82
2023/05/19 04:06:57;;;;;;;;;;;14.80;82.50;;;-151.14;100.00;62537.16;5075333;28;19920;-83
2023/05/19 04:09:25;;;;;;;;;;;14.80;82.60;;;-151.14;100.00;62537.16;5057677;28;19920;-83
2023/05/19 04:11:53;;;;;;;;;;;14.80;82.80;;;-151.14;100.00;62537.16;5058441;28;19920;-82
2023/05/19 04:14:21;;;;;;;;;;;14.90;82.50;;;-151.14;100.00;62537.16;5075098;28;20089;-82
2023/05/19 04:16:49;;;;;;;;;;;14.90;81.90;;;-151.14;100.00;62537.16;5075006;28;19920;-82
2023/05/19 04:19:19;;;;;;;;;;;14.90;81.90;;;-151.14;100.00;62537.16;5057591;28;19931;-82
2023/05/19 04:21:47;;;;;;;;;;;14.90;81.40;;;-151.14;100.00;62537.16;5058319;28;19920;-82
2023/05/19 04:24:15;;;;;;;;;;;14.90;81.00;;;-151.14;100.00;62537.16;5074944;28;19927;-82
2023/05/19 04:26:45;;;;;;;;;;;15.00;80.60;;;-151.14;100.00;62537.16;5058157;28;19920;-82
2023/05/19 04:29:16;;;;;;;;;;;15.00;80.20;;;-151.14;100.00;62537.16;5074326;28;20204;-82
2023/05/19 04:31:45;;;;;;;;;;;15.00;80.00;;;-151.14;100.00;62537.16;5058158;28;19926;-83
2023/05/19 04:34:13;;;;;;;;;;;15.00;79.80;;;-151.14;100.00;62537.16;5074852;28;19926;-83
2023/05/19 04:36:42;;;;;;;;;;;15.10;79.70;;;-151.14;100.00;62537.16;5058051;28;19926;-82
2023/05/19 04:39:11;;;;;;;;;;;15.10;79.50;;;-151.14;100.00;62537.16;5074089;28;19920;-83
2023/05/19 04:41:43;;;;;;;;;;;15.10;79.40;;;-151.14;100.00;62537.16;5057901;28;19920;-83
2023/05/19 04:44:12;;;;;;;;;;;15.10;79.30;;;-151.14;100.00;62537.16;5057895;28;20234;-82
2023/05/19 04:46:41;;;;;;;;;;;15.10;79.20;;;-151.14;100.00;62537.16;5074686;28;19920;-83
2023/05/19 04:49:11;;;;;;;;;;;15.20;79.10;;;-151.14;100.00;62537.16;5091673;28;19924;-82
2023/05/19 04:51:40;;;;;;;;;;;15.20;78.90;;;-151.14;100.00;62537.16;5057456;28;19927;-82
2023/05/19 04:54:09;;;;;;;;;;;15.20;78.80;;;-151.14;100.00;62537.16;5074663;28;19934;-83
2023/05/19 04:56:37;;;;;;;;;;;15.20;78.70;;;-151.14;100.00;62537.16;5057701;28;19920;-83
2023/05/19 04:59:06;;;;;;;;;;;15.20;78.50;;;-151.14;100.00;62537.16;5056952;28;19943;-83
2023/05/19 05:01:38;;;;;;;;;;;15.20;78.50;;;-151.14;100.00;62537.16;5057486;28;19934;-82
2023/05/19 05:04:07;;;;;;;;;;;15.20;78.40;;;-151.14;100.00;62537.16;5057540;28;20136;-82
2023/05/19 05:06:37;;;;;;;;;;;15.30;78.40;;;-151.14;100.00;62537.16;5057766;28;20105;-82
2023/05/19 05:09:07;;;;;;;;;;;15.30;78.30;;;-151.14;100.00;62537.16;5056820;28;19920;-83
2023/05/19 05:11:37;;;;;;;;;;;15.40;78.50;;;-151.14;100.00;62537.16;5057610;28;19920;-82
2023/05/19 05:14:06;;;;;;;;;;;15.40;78.20;;;-151.14;100.00;62537.16;5074322;28;20120;-82
2023/05/19 05:16:35;;;;;;;;;;;15.40;79.20;;;-151.14;100.00;62537.16;5057356;28;19920;-82
2023/05/19 05:19:03;;;;;;;;;;;15.50;78.80;;;-151.14;100.00;62537.16;5056507;28;19920;-82
2023/05/19 05:21:32;;;;;;;;;;;15.50;78.50;;;-151.14;100.00;62537.16;5074094;28;20120;-82
2023/05/19 05:24:01;;;;;;;;;;;15.50;78.30;;;-151.14;100.00;62537.16;5074094;28;19920;-82
2023/05/19 05:26:33;;;;;;;;;;;15.50;78.20;;;-151.14;100.00;62537.16;5057355;28;19920;-83
2023/05/19 05:29:03;;;;;;;;;;;15.50;78.80;;;-151.14;100.00;62537.16;5056506;28;19920;-82
2023/05/19 05:31:32;;;;;;;;;;;15.50;78.30;;;-151.14;100.00;62537.16;5057113;28;19920;-82
2023/05/19 05:34:00;;;;;;;;;;;15.60;78.40;;;-151.14;100.00;62537.16;5057102;28;19920;-83
2023/05/19 05:36:33;;;;;;;;;;;15.60;78.20;;;-151.14;100.00;62537.16;5074123;28;19926;-83
2023/05/19 05:39:03;;;;;;;;;;;15.60;78.30;;;-151.14;100.00;62537.16;5056317;28;19920;-83
2023/05/19 05:41:34;;;;;;;;;;;15.60;78.30;;;-151.14;100.00;62537.16;5057053;28;20123;-83
2023/05/19 05:44:06;;;;;;;;;;;15.70;78.40;;;-151.14;100.00;62537.16;5073797;28;19926;-83
2023/05/19 05:46:35;;;;;;;;;;;15.70;78.10;;;-151.14;100.00;62537.16;5057012;28;20230;-82
2023/05/19 05:49:03;;;;;;;;;;;15.70;77.90;;;-151.14;100.00;62537.16;5056274;28;19920;-82
2023/05/19 05:51:32;;;;;;;;;;;15.70;77.70;;;-151.14;100.00;62537.16;5056848;28;19920;-83
2023/05/19 05:54:01;;;;;;;;;;;15.70;77.70;;;-151.14;100.00;62537.16;5056721;28;19920;-83
2023/05/19 05:56:36;;;;;;;;;;;15.80;77.60;;;-151.14;100.00;62537.16;5056897;28;19931;-83
2023/05/19 05:59:07;;;;;;;;;;;15.80;77.70;;;-151.14;100.00;62537.16;5056028;28;19920;-83
2023/05/19 06:01:36;;;;;;;;;;;15.90;77.40;;;-151.14;100.00;62537.16;5056775;28;19927;-83
2023/05/19 06:04:06;;;;;;;;;;;15.90;77.60;;;-151.14;100.00;62537.16;5073572;28;20212;-83
2023/05/19 06:06:34;;;;;;;;;;;15.90;77.70;;;-151.14;100.00;62537.16;5056716;28;20208;-83
2023/05/19 06:09:03;;;;;;;;;;;15.90;77.50;;;-151.14;100.00;62537.16;5072304;28;19920;-83
2023/05/19 06:11:32;;;;;;;;;;;15.90;77.40;;;-151.14;100.00;62537.16;5056743;28;19920;-83
2023/05/19 06:14:01;;;;;;;;;;;15.90;77.30;;;-151.14;100.00;62537.16;5056476;28;20105;-83
2023/05/19 06:16:56;;;;;;;;;;;15.90;77.50;;;-151.14;100.00;62537.16;5070181;28;19920;-83
2023/05/19 06:19:24;;;;;;;;;;;15.90;77.60;;;-151.14;100.00;62537.16;5055796;28;19935;-83
2023/05/19 06:21:52;;;;;;;;;;;15.90;77.80;;;-151.14;100.00;62537.16;5073219;28;19920;-83
2023/05/19 06:24:20;;;;;;;;;;;15.80;77.80;;;-151.14;100.00;62537.16;5072921;28;19920;-83
2023/05/19 06:26:49;;;;;;;;;;;15.80;78.00;;;-151.14;100.00;62537.16;5056416;28;20132;-83
2023/05/19 06:29:18;;;;;;;;;;;15.80;78.20;;;-151.14;100.00;62537.16;5072712;28;19920;-83
2023/05/19 06:31:46;;;;;;;;;;;15.80;78.40;;;-151.14;100.00;62537.16;5056617;28;19920;-83
2023/05/19 06:34:19;;;;;;;;;;;15.70;78.40;;;-151.14;100.00;62537.16;5056441;28;19921;-83
2023/05/19 06:36:48;;;;;;;;;;;15.70;79.40;;;-151.14;100.00;62537.16;5090966;28;19926;-83
2023/05/19 06:39:17;;;;;;;;;;;15.70;79.20;;;-151.14;100.00;62537.16;5055654;28;19920;-83
2023/05/19 06:41:45;;;;;;;;;;;15.70;78.60;;;-151.14;100.00;62537.16;5072961;28;19926;-83
2023/05/19 06:44:25;;;;;;;;;;;15.70;78.70;;;-151.14;100.00;62537.16;5056185;28;19926;-83
2023/05/19 06:46:53;;;;;;;;;;;15.70;78.40;;;-151.14;100.00;62537.16;5072995;28;19920;-84
2023/05/19 06:49:23;;;;;;;;;;;15.70;79.30;;;-151.14;100.00;62537.16;5072274;28;19920;-83
2023/05/19 06:51:51;;;;;;;;;;;15.70;79.10;;;-151.14;100.00;62537.16;5056306;28;19927;-83
2023/05/19 06:54:19;;;;;;;;;;;15.70;79.80;;;-151.14;100.00;62537.16;5056032;28;19926;-83
2023/05/19 06:56:47;;;;;;;;;;;15.70;79.20;;;-151.14;100.00;62537.16;5056292;28;19926;-83
2023/05/19 06:59:16;;;;;;;;;;;15.70;79.70;;;-151.14;100.00;62537.16;5055387;28;19920;-83
2023/05/19 07:01:45;;;;;;;;;;;15.70;79.80;;;-151.14;100.00;62537.16;5073057;28;19926;-83
2023/05/19 07:04:13;;;;;;;;;;;15.70;79.90;;;-151.14;100.00;62537.16;5090677;28;19920;-83
2023/05/19 07:06:43;;;;;;;;;;;15.60;79.60;;;-151.14;100.00;62537.16;5055988;28;19926;-83
2023/05/19 07:09:11;;;;;;;;;;;15.60;79.90;;;-151.14;100.00;62537.16;5072126;28;19924;-83
2023/05/19 07:11:40;;;;;;;;;;;15.60;79.70;;;-151.14;100.00;62537.16;5072695;28;19920;-83
2023/05/19 07:14:09;;;;;;;;;;;15.60;79.50;;;-151.14;100.00;62537.16;5072839;28;19920;-83
2023/05/19 07:16:37;;;;;;;;;;;15.60;79.80;;;-151.14;100.00;62537.16;5072703;28;19920;-83
2023/05/19 07:19:06;;;;;;;;;;;15.60;79.30;;;-151.14;100.00;62537.16;5072039;28;19940;-83
2023/05/19 07:21:35;;;;;;;;;;;15.60;79.90;;;-151.14;100.00;62537.16;5058246;28;19926;-83
2023/05/19 07:24:04;;;;;;;;;;;15.60;79.40;;;-151.14;100.00;62537.16;5059131;28;19928;-83
2023/05/19 07:26:32;;;;;;;;;;;15.60;79.60;;;-151.14;100.00;62537.16;5059007;28;19921;-83
2023/05/19 07:29:00;;;;;;;;;;;15.60;79.80;;;-151.14;100.00;62537.16;5092082;28;20120;-83
2023/05/19 07:31:28;;;;;;;;;;;15.60;79.60;;;-151.14;100.00;62537.16;5059034;28;19926;-83
2023/05/19 07:33:56;;;;;;;;;;;15.60;79.40;;;-151.14;100.00;62537.16;5075856;28;19920;-83
2023/05/19 07:36:24;;;;;;;;;;;15.60;80.20;;;-151.14;100.00;62537.16;5092608;28;20223;-83
2023/05/19 07:38:52;;;;;;;;;;;15.60;80.40;;;-151.14;100.00;62537.16;5058579;28;20360;-83
2023/05/19 07:41:22;;;;;;;;;;;15.70;79.70;;;-151.14;100.00;62537.16;5058931;28;19946;-83
2023/05/19 07:43:50;;;;;;;;;;;15.70;79.60;;;-151.14;100.00;62537.16;5055641;28;19920;-83
2023/05/19 07:46:18;;;;;;;;;;;15.70;79.60;;;-151.14;100.00;62537.16;5055581;28;19928;-83
2023/05/19 07:48:46;;;;;;;;;;;15.70;79.30;;;-151.14;100.00;62537.16;5055071;28;19921;-83
2023/05/19 07:51:14;;;;;;;;;;;15.70;80.30;;;-151.14;100.00;62537.16;5038701;28;19921;-83
2023/05/19 07:53:42;;;;;;;;;;;15.70;79.90;;;-151.14;100.00;62537.16;5055330;28;19920;-83
2023/05/19 07:56:10;;;;;;;;;;;15.70;79.80;;;-151.14;100.00;62537.16;5038509;28;19921;-83
2023/05/19 07:58:40;;;;;;;;;;;15.80;79.70;;;-151.14;100.00;62537.16;5072539;28;19927;-83
2023/05/19 08:01:08;;;;;;;;;;;15.80;79.60;;;-151.14;100.00;62537.16;5038529;28;19927;-83
2023/05/19 08:03:36;;;;;;;;;;;15.80;79.50;;;-151.14;100.00;62537.16;5038750;28;19920;-83
2023/05/19 08:06:04;;;;;;;;;;;15.90;79.80;;;-151.14;100.00;62537.16;5038500;28;19921;-83
2023/05/19 08:08:33;;;;;;;;;;;15.90;79.80;;;-151.14;100.00;62537.16;5037918;28;19920;-84
2023/05/19 08:11:03;;;;;;;;;;;16.00;79.00;;;-151.14;100.00;62537.16;5054564;28;19920;-84
2023/05/19 08:13:31;;;;;;;;;;;16.00;78.80;;;-151.14;100.00;62537.16;5038569;28;20212;-83
2023/05/19 08:16:00;;;;;;;;;;;16.00;78.50;;;-151.14;100.00;62537.16;5054734;28;19924;-84
2023/05/19 08:18:28;;;;;;;;;;;16.10;79.20;;;-151.14;100.00;62537.16;5043424;28;19929;-84
2023/05/19 08:20:56;;;;;;;;;;;16.10;79.30;;;-151.14;100.00;62537.16;5038337;28;19927;-84
2023/05/19 08:23:24;;;;;;;;;;;16.10;79.60;;;-151.14;100.00;62537.16;5055018;28;19927;-83
2023/05/19 08:25:52;;;;;;;;;;;16.10;79.00;;;-151.14;100.00;62537.16;5038119;28;19927;-84
2023/05/19 08:28:20;;;;;;;;;;;16.10;78.50;;;-151.14;100.00;62537.16;5054715;28;20123;-84
2023/05/19 08:30:48;;;;;;;;;;;16.10;78.40;;;-151.14;100.00;62537.16;5037581;28;20116;-83
2023/05/19 08:33:19;;;;;;;;;;;16.10;79.20;;;-151.14;100.00;62537.16;5054713;28;20212;-84
2023/05/19 08:35:47;;;;;;;;;;;16.10;78.00;;;-151.14;100.00;62537.16;5054808;28;20482;-84
2023/05/19 08:38:15;;;;;;;;;;;16.10;78.00;;;-151.14;100.00;62537.16;5054465;28;19921;-84
2023/05/19 08:40:44;;;;;;;;;;;16.10;78.20;;;-151.14;100.00;62537.16;5054510;28;19920;-84
2023/05/19 08:43:12;;;;;;;;;;;16.10;77.90;;;-151.14;100.00;62537.16;5072379;28;20124;-84
2023/05/19 08:45:41;;;;;;;;;;;16.10;77.90;;;-151.14;100.00;62537.16;5038015;28;19920;-84
2023/05/19 08:48:08;;;;;;;;;;;16.10;79.00;;;-151.14;100.00;62537.16;5072449;28;20114;-83
2023/05/19 08:50:40;;;;;;;;;;;16.10;78.00;;;-151.14;100.00;62537.16;5053816;28;19927;-84
2023/05/19 08:53:11;;;;;;;;;;;16.20;77.70;;;-151.14;100.00;62537.16;5054487;28;19927;-84
2023/05/19 08:55:42;;;;;;;;;;;16.20;78.00;;;-151.14;100.00;62537.16;5038011;28;19921;-84
2023/05/19 08:58:10;;;;;;;;;;;16.10;77.80;;;-151.14;100.00;62537.16;5037675;28;19926;-83
2023/05/19 09:00:38;;;;;;;;;;;16.10;78.20;;;-151.14;100.00;62537.16;5037305;28;19942;-83
2023/05/19 09:03:06;;;;;;;;;;;16.10;77.70;;;-151.14;100.00;62537.16;5054281;28;19927;-83
2023/05/19 09:05:34;;;;;;;;;;;16.10;78.30;;;-151.14;100.00;62537.16;5054112;28;19927;-84
2023/05/19 09:08:03;;;;;;;;;;;16.10;77.50;;;-151.14;100.00;62537.16;5072010;28;19927;-83
2023/05/19 09:10:31;;;;;;;;;;;16.10;79.20;;;-151.14;100.00;62537.16;5053548;28;19920;-83
2023/05/19 09:12:59;;;;;;;;;;;16.10;79.00;;;-151.14;100.00;62537.16;5037512;28;19942;-84
2023/05/19 09:15:27;;;;;;;;;;;16.10;80.00;;;-151.14;100.00;62537.16;5037516;28;20213;-83
2023/05/19 09:18:05;;;;;;;;;;;16.20;78.70;;;-151.14;100.00;62537.16;5071795;28;19927;-84
2023/05/19 09:20:39;;;;;;;;;;;16.20;78.70;;;-151.14;100.00;62537.16;5036944;28;19928;-83
2023/05/19 09:23:12;;;;;;;;;;;16.20;78.40;;;-151.14;100.00;62537.16;5053994;28;19929;-84
2023/05/19 09:25:47;;;;;;;;;;;16.20;77.90;;;-151.14;100.00;62537.16;5037401;28;19930;-84
2023/05/19 09:28:15;;;;;;;;;;;16.20;77.70;;;-151.14;100.00;62537.16;5071623;28;19926;-84
2023/05/19 09:30:43;;;;;;;;;;;16.20;77.50;;;-151.14;100.00;62537.16;5037035;28;19920;-83
2023/05/19 09:33:11;;;;;;;;;;;16.20;77.80;;;-151.14;100.00;62537.16;5054023;28;20205;-84
2023/05/19 09:35:39;;;;;;;;;;;16.30;79.10;;;-151.14;100.00;62537.16;5037299;28;19921;-84
2023/05/19 09:38:09;;;;;;;;;;;16.30;78.30;;;-151.14;100.00;62537.16;5037248;28;19920;-84
2023/05/19 09:40:37;;;;;;;;;;;16.30;78.30;;;-151.14;100.00;62537.16;5053042;28;19921;-84
2023/05/19 09:43:05;;;;;;;;;;;16.30;78.00;;;-151.14;100.00;62537.16;5036321;28;19926;-83
2023/05/19 09:45:33;;;;;;;;;;;16.30;78.10;;;-151.14;100.00;62537.16;5037237;28;19931;-83
2023/05/19 09:48:04;;;;;;;;;;;16.40;78.40;;;-151.14;100.00;62537.16;5053468;28;19920;-84
2023/05/19 09:50:32;;;;;;;;;;;16.30;78.40;;;-151.14;100.00;62537.16;5036449;28;19931;-84
2023/05/19 09:53:00;;;;;;;;;;;16.30;78.10;;;-151.14;100.00;62537.16;5036916;28;20116;-84
2023/05/19 09:55:31;;;;;;;;;;;16.40;77.80;;;-151.14;100.00;62537.16;5053538;28;19921;-84
2023/05/19 09:58:02;;;;;;;;;;;16.40;77.70;;;-151.14;100.00;62537.16;5036925;28;20230;-84
2023/05/19 10:00:31;;;;;;;;;;;16.40;77.20;;;-151.14;100.00;62537.16;5036272;28;20128;-84
2023/05/19 10:02:59;;;;;;;;;;;16.40;77.40;;;-151.14;100.00;62537.16;5053326;28;19927;-84
2023/05/19 10:05:27;;;;;;;;;;;16.40;77.30;;;-151.14;100.00;62537.16;5053356;28;19920;-84
2023/05/19 10:07:55;;;;;;;;;;;16.40;77.10;;;-151.14;100.00;62537.16;5036788;28;19921;-84
2023/05/19 10:10:23;;;;;;;;;;;16.40;77.30;;;-151.14;100.00;62537.16;5052776;28;19921;-84
2023/05/19 10:12:52;;;;;;;;;;;16.50;77.20;;;-151.14;100.00;62537.16;5036671;28;19921;-84
2023/05/19 10:15:20;;;;;;;;;;;16.50;76.10;;;-151.14;100.00;62537.16;5065431;28;20246;-84
2023/05/19 10:17:48;;;;;;;;;;;16.40;76.30;;;-151.14;100.00;62537.16;5056587;28;19926;-84
2023/05/19 10:20:17;;;;;;;;;;;16.50;76.20;;;-151.14;100.00;62537.16;5090541;28;19920;-84
2023/05/19 10:22:45;;;;;;;;;;;16.50;76.00;;;-151.14;100.00;62537.16;5072984;28;20365;-84
2023/05/19 10:25:15;;;;;;;;;;;16.50;75.90;;;-151.14;100.00;62537.16;5056553;28;19942;-84
2023/05/19 10:27:45;;;;;;;;;;;16.50;75.80;;;-151.14;100.00;62537.16;5056367;28;20119;-84
2023/05/19 10:30:16;;;;;;;;;;;16.60;75.60;;;-151.14;100.00;62537.16;5055992;28;20234;-82
2023/05/19 10:32:45;;;;;;;;;;;16.50;75.40;;;-151.14;100.00;62537.16;5056354;28;19920;-82
2023/05/19 10:35:20;;;;;;;;;;;16.60;75.20;;;-151.14;100.00;62537.16;5056446;28;19920;-82
2023/05/19 10:37:53;;;;;;;;;;;16.60;75.30;;;-151.14;100.00;62537.16;5056382;28;19926;-82
2023/05/19 10:40:24;;;;;;;;;;;16.60;75.10;;;-151.14;100.00;62537.16;5072545;28;19920;-82
2023/05/19 10:42:59;;;;;;;;;;;16.60;75.20;;;-151.14;100.00;62537.16;5073129;28;19926;-82
2023/05/19 10:45:30;;;;;;;;;;;16.60;75.00;;;-151.14;100.00;62537.16;5056494;28;19927;-83
2023/05/19 10:47:58;;;;;;;;;;;16.60;75.10;;;-151.14;100.00;62537.16;5072834;28;19920;-82
2023/05/19 10:50:26;;;;;;;;;;;16.60;75.10;;;-151.14;100.00;62537.16;5055514;28;19943;-83
2023/05/19 10:52:54;;;;;;;;;;;16.60;75.10;;;-151.14;100.00;62537.16;5072872;28;19927;-84
2023/05/19 10:55:47;;;;;;;;;;;16.60;75.20;;;-151.14;100.00;62537.16;5075320;28;19926;-83
2023/05/19 10:58:15;;;;;;;;;;;16.50;75.20;;;-151.14;100.00;62537.16;5075890;28;19920;-83
2023/05/19 11:00:44;;;;;;;;;;;16.50;75.30;;;-151.14;100.00;62537.16;5093942;28;19927;-83
2023/05/19 11:03:13;;;;;;;;;;;16.50;75.30;;;-151.14;100.00;62537.16;5059458;28;19920;-83
2023/05/19 11:05:44;;;;;;;;;;;16.50;75.50;;;-151.14;100.00;62537.16;5076308;28;19920;-83